createdAt,value
2022-09-21T00:01:27.248Z,9.50
2022-09-21T00:04:00.196Z,9.50
2022-09-21T00:06:29.714Z,9.50
2022-09-21T00:08:57.483Z,9.50
2022-09-21T00:11:30.392Z,9.50
2022-09-21T00:14:04.765Z,9.50
2022-09-21T00:16:32.568Z,9.50
2022-09-21T00:19:00.900Z,9.40
2022-09-21T00:21:28.777Z,9.40
2022-09-21T00:23:56.269Z,9.50
2022-09-21T00:26:26.021Z,9.40
2022-09-21T00:28:58.851Z,9.40
2022-09-21T00:31:27.346Z,9.40
2022-09-21T00:33:55.295Z,9.40
2022-09-21T00:36:25.057Z,9.40
2022-09-21T00:38:55.307Z,9.40
2022-09-21T00:41:23.097Z,9.40
2022-09-21T00:44:19.158Z,9.30
2022-09-21T00:46:48.503Z,9.30
2022-09-21T00:49:17.285Z,9.20
2022-09-21T00:51:45.705Z,9.20
2022-09-21T00:54:18.565Z,9.10
2022-09-21T00:56:46.640Z,9.10
2022-09-21T00:59:16.018Z,9.00
2022-09-21T01:01:43.592Z,9.00
2022-09-21T01:04:12.242Z,9.00
2022-09-21T01:06:40.538Z,8.90
2022-09-21T01:09:08.501Z,8.90
2022-09-21T01:12:13.479Z,8.90
2022-09-21T01:15:06.630Z,8.80
2022-09-21T01:17:58.150Z,8.80
2022-09-21T01:20:34.361Z,8.70
2022-09-21T01:23:38.639Z,8.70
2022-09-21T01:26:33.026Z,8.60
2022-09-21T01:29:03.235Z,8.50
2022-09-21T01:32:21.214Z,8.50
2022-09-21T01:35:10.088Z,8.50
2022-09-21T01:37:49.059Z,8.40
2022-09-21T01:40:39.268Z,8.40
2022-09-21T01:43:09.818Z,8.40
2022-09-21T01:45:41.125Z,8.30
2022-09-21T01:48:09.609Z,8.30
2022-09-21T01:50:42.101Z,8.30
2022-09-21T01:53:20.149Z,8.20
2022-09-21T01:55:55.782Z,8.20
2022-09-21T01:58:33.772Z,8.20
2022-09-21T02:01:01.882Z,8.20
2022-09-21T02:03:41.110Z,8.20
2022-09-21T02:06:10.050Z,8.20
2022-09-21T02:08:38.446Z,8.20
2022-09-21T02:11:07.410Z,8.10
2022-09-21T02:13:41.846Z,8.10
2022-09-21T02:16:27.648Z,8.10
2022-09-21T02:19:11.701Z,8.20
2022-09-21T02:22:10.494Z,8.10
2022-09-21T02:24:47.898Z,8.10
2022-09-21T02:27:24.745Z,8.20
2022-09-21T02:30:22.328Z,8.20
2022-09-21T02:33:02.266Z,8.20
2022-09-21T02:35:36.602Z,8.20
2022-09-21T02:38:22.433Z,8.30
2022-09-21T02:41:24.503Z,8.20
2022-09-21T02:44:00.786Z,8.30
2022-09-21T02:46:43.037Z,8.20
2022-09-21T02:49:19.597Z,8.30
2022-09-21T02:51:51.278Z,8.30
2022-09-21T02:54:23.480Z,8.30
2022-09-21T02:56:51.879Z,8.40
2022-09-21T02:59:19.203Z,8.40
2022-09-21T03:01:47.515Z,8.40
2022-09-21T03:04:15.092Z,8.40
2022-09-21T03:06:42.405Z,8.40
2022-09-21T03:09:10.035Z,8.40
2022-09-21T03:11:37.446Z,8.40
2022-09-21T03:14:08.919Z,8.40
2022-09-21T03:16:37.357Z,8.40
2022-09-21T03:19:06.010Z,8.40
2022-09-21T03:21:33.443Z,8.40
2022-09-21T03:24:01.088Z,8.40
2022-09-21T03:26:28.435Z,8.30
2022-09-21T03:28:55.924Z,8.30
2022-09-21T03:31:23.301Z,8.30
2022-09-21T03:33:50.843Z,8.30
2022-09-21T03:36:18.707Z,8.30
2022-09-21T03:38:45.935Z,8.20
2022-09-21T03:41:15.491Z,8.20
2022-09-21T03:43:42.884Z,8.20
2022-09-21T03:46:10.005Z,8.20
2022-09-21T03:48:37.887Z,8.10
2022-09-21T03:51:05.209Z,8.10
2022-09-21T03:53:32.606Z,8.00
2022-09-21T03:55:59.991Z,8.00
2022-09-21T03:58:27.596Z,8.00
2022-09-21T04:00:54.854Z,7.90
2022-09-21T04:03:22.684Z,7.90
2022-09-21T04:05:50.062Z,7.90
2022-09-21T04:08:17.292Z,7.80
2022-09-21T04:10:44.862Z,7.80
2022-09-21T04:13:13.702Z,7.80
2022-09-21T04:15:41.045Z,7.80
2022-09-21T04:18:08.781Z,7.70
2022-09-21T04:20:36.097Z,7.70
2022-09-21T04:23:04.140Z,7.70
2022-09-21T04:25:35.067Z,7.60
2022-09-21T04:28:02.737Z,7.60
2022-09-21T04:30:34.335Z,7.50
2022-09-21T04:33:05.174Z,7.50
2022-09-21T04:35:32.858Z,7.50
2022-09-21T04:38:00.298Z,7.40
2022-09-21T04:40:28.507Z,7.40
2022-09-21T04:42:56.412Z,7.40
2022-09-21T04:45:24.237Z,7.40
2022-09-21T04:47:51.371Z,7.30
2022-09-21T04:50:19.678Z,7.30
2022-09-21T04:52:48.140Z,7.30
2022-09-21T04:55:15.337Z,7.30
2022-09-21T04:57:42.788Z,7.20
2022-09-21T05:00:11.081Z,7.30
2022-09-21T05:02:41.000Z,7.20
2022-09-21T05:05:08.831Z,7.30
2022-09-21T05:07:36.180Z,7.30
2022-09-21T05:10:03.711Z,7.20
2022-09-21T05:12:32.481Z,7.20
2022-09-21T05:15:00.231Z,7.20
2022-09-21T05:17:30.663Z,7.20
2022-09-21T05:19:57.992Z,7.10
2022-09-21T05:22:25.326Z,7.10
2022-09-21T05:24:52.644Z,7.10
2022-09-21T05:27:20.136Z,7.10
2022-09-21T06:40:01.711Z,8.70
2022-09-21T07:48:55.232Z,10.60
2022-09-21T07:51:25.425Z,10.70
2022-09-21T07:56:48.073Z,10.90
2022-09-21T08:01:57.410Z,11.20
2022-09-21T08:04:27.413Z,11.30
2022-09-21T08:06:56.177Z,11.40
2022-09-21T08:09:26.891Z,11.50
2022-09-21T08:14:40.695Z,11.60
2022-09-21T08:17:13.935Z,11.80
2022-09-21T08:25:41.177Z,12.10
2022-09-21T08:34:19.773Z,12.40
2022-09-21T08:39:40.794Z,12.70
2022-09-21T08:42:50.945Z,12.80
2022-09-21T08:48:13.974Z,13.00
2022-09-21T08:51:06.921Z,13.20
2022-09-21T08:53:48.170Z,13.30
2022-09-21T08:57:00.494Z,13.40
2022-09-21T09:15:51.729Z,13.80
2022-09-21T09:39:26.843Z,14.10
2022-09-21T09:46:00.579Z,14.30
2022-09-21T10:03:20.603Z,15.20
2022-09-21T10:14:06.683Z,17.10
2022-09-21T10:37:27.300Z,17.50
2022-09-21T10:43:24.125Z,17.90
2022-09-21T10:49:20.892Z,18.20
2022-09-21T10:52:04.045Z,18.50
2022-09-21T10:54:36.054Z,18.60
2022-09-21T11:00:44.061Z,18.70
2022-09-21T11:10:34.540Z,19.10
2022-09-21T11:20:25.230Z,19.60
2022-09-21T11:33:09.485Z,19.70
2022-09-21T11:36:03.153Z,19.60
2022-09-21T11:39:01.350Z,19.30
2022-09-21T11:42:06.472Z,19.00
2022-09-21T11:45:01.111Z,18.80
2022-09-21T11:54:51.398Z,18.60
2022-09-21T12:37:28.114Z,19.00
2022-09-21T12:40:04.876Z,18.90
2022-09-21T13:03:14.400Z,18.10
2022-09-21T13:15:28.215Z,18.30
2022-09-21T13:27:25.889Z,18.00
2022-09-21T13:30:37.723Z,17.90
2022-09-21T13:36:36.968Z,18.10
2022-09-21T13:39:20.064Z,18.10
2022-09-21T13:42:02.875Z,18.10
2022-09-21T13:44:50.825Z,18.20
2022-09-21T13:50:32.660Z,18.20
2022-09-21T13:53:11.141Z,18.20
2022-09-21T13:55:44.166Z,18.20
2022-09-21T14:08:19.157Z,18.20
2022-09-21T14:30:29.685Z,18.10
2022-09-21T14:33:49.071Z,18.00
2022-09-21T14:47:45.686Z,17.50
2022-09-21T14:50:30.619Z,17.40
2022-09-21T14:59:10.211Z,17.60
2022-09-21T15:18:02.558Z,17.20
2022-09-21T15:42:44.021Z,16.70
2022-09-21T16:20:36.638Z,16.80
2022-09-21T16:34:38.088Z,16.60
2022-09-21T16:37:49.694Z,16.50
2022-09-21T17:02:51.319Z,15.70
2022-09-21T17:16:37.368Z,15.20
2022-09-21T17:19:12.130Z,15.00
2022-09-21T17:27:32.016Z,14.70
2022-09-21T17:30:18.474Z,14.60
2022-09-21T17:47:22.390Z,13.90
2022-09-21T17:49:51.999Z,13.80
2022-09-21T17:52:41.756Z,13.60
2022-09-21T17:55:12.966Z,13.60
2022-09-21T18:01:03.990Z,13.40
2022-09-21T18:03:43.097Z,13.30
2022-09-21T18:06:11.907Z,13.20
2022-09-21T18:08:41.712Z,13.10
2022-09-21T18:11:55.840Z,13.00
2022-09-21T18:14:35.382Z,12.90
2022-09-21T18:17:21.273Z,12.80
2022-09-21T18:20:19.368Z,12.80
2022-09-21T18:29:38.369Z,12.50
2022-09-21T18:32:40.863Z,12.40
2022-09-21T18:35:35.241Z,12.30
2022-09-21T18:38:09.206Z,12.20
2022-09-21T18:41:13.112Z,12.20
2022-09-21T18:43:58.701Z,12.10
2022-09-21T18:46:43.112Z,12.00
2022-09-21T18:49:35.095Z,12.00
2022-09-21T18:52:34.116Z,11.90
2022-09-21T18:55:02.526Z,11.80
2022-09-21T18:57:32.618Z,11.80
2022-09-21T19:00:00.730Z,11.70
2022-09-21T19:02:28.673Z,11.70
2022-09-21T19:04:58.448Z,11.60
2022-09-21T19:07:39.057Z,11.50
2022-09-21T19:10:18.369Z,11.50
2022-09-21T19:13:04.161Z,11.50
2022-09-21T19:15:59.051Z,11.40
2022-09-21T19:18:31.891Z,11.40
2022-09-21T19:21:33.328Z,11.30
2022-09-21T19:24:31.916Z,11.20
2022-09-21T19:27:26.559Z,11.20
2022-09-21T19:30:04.736Z,11.10
2022-09-21T19:32:45.159Z,11.00
2022-09-21T19:35:36.332Z,11.00
2022-09-21T19:38:04.552Z,11.00
2022-09-21T19:40:39.883Z,10.90
2022-09-21T19:43:07.130Z,10.90
2022-09-21T19:46:04.573Z,10.80
2022-09-21T19:48:56.974Z,10.80
2022-09-21T19:51:30.395Z,10.80
2022-09-21T19:54:20.915Z,10.70
2022-09-21T19:57:09.253Z,10.70
2022-09-21T19:59:46.066Z,10.60
2022-09-21T20:02:30.488Z,10.60
2022-09-21T20:05:12.898Z,10.50
2022-09-21T20:07:53.982Z,10.50
2022-09-21T20:10:27.695Z,10.40
2022-09-21T20:13:22.385Z,10.40
2022-09-21T20:16:19.029Z,10.40
2022-09-21T20:19:21.581Z,10.30
2022-09-21T20:21:59.312Z,10.30
2022-09-21T20:24:43.511Z,10.30
2022-09-21T20:27:40.297Z,10.30
2022-09-21T20:30:10.911Z,10.20
2022-09-21T20:32:42.672Z,10.20
2022-09-21T20:35:34.394Z,10.20
2022-09-21T20:38:04.715Z,10.20
2022-09-21T20:40:32.533Z,10.20
2022-09-21T20:43:01.559Z,10.20
2022-09-21T20:45:29.961Z,10.20
2022-09-21T20:48:23.325Z,10.20
2022-09-21T20:50:51.423Z,10.20
2022-09-21T20:53:19.573Z,10.20
2022-09-21T20:55:54.505Z,10.10
2022-09-21T20:58:22.420Z,10.10
2022-09-21T21:00:52.269Z,10.10
2022-09-21T21:03:23.050Z,10.10
2022-09-21T21:05:50.499Z,10.10
2022-09-21T21:08:17.617Z,10.10
2022-09-21T21:10:48.084Z,10.00
2022-09-21T21:13:15.222Z,10.00
2022-09-21T21:15:42.877Z,10.00
2022-09-21T21:18:12.566Z,10.10
2022-09-21T21:20:41.438Z,10.00
2022-09-21T21:23:09.248Z,10.00
2022-09-21T21:25:36.454Z,10.00
2022-09-21T21:28:04.045Z,10.00
2022-09-21T21:30:31.887Z,10.00
2022-09-21T21:32:59.240Z,10.00
2022-09-21T21:35:26.598Z,10.00
2022-09-21T21:37:53.913Z,10.00
2022-09-21T21:40:21.074Z,10.00
2022-09-21T21:42:48.309Z,10.00
2022-09-21T21:45:15.679Z,10.00
2022-09-21T21:47:43.025Z,10.00
2022-09-21T21:50:11.488Z,10.00
2022-09-21T21:52:38.926Z,10.00
2022-09-21T21:55:06.986Z,10.00
2022-09-21T21:57:34.176Z,10.00
2022-09-21T22:00:01.496Z,10.00
2022-09-21T22:02:29.843Z,10.00
2022-09-21T22:04:57.126Z,10.00
2022-09-21T22:07:24.540Z,10.00
2022-09-21T22:09:51.662Z,10.00
2022-09-21T22:12:18.950Z,10.00
2022-09-21T22:14:46.679Z,10.00
2022-09-21T22:17:14.161Z,10.00
2022-09-21T22:19:41.572Z,10.00
2022-09-21T22:22:09.159Z,10.00
2022-09-21T22:24:36.594Z,10.00
2022-09-21T22:27:03.888Z,10.00
2022-09-21T22:29:31.047Z,10.00
2022-09-21T22:31:58.510Z,10.00
2022-09-21T22:34:25.884Z,10.00
2022-09-21T22:36:54.128Z,10.00
2022-09-21T22:39:21.653Z,10.00
2022-09-21T22:41:49.068Z,10.00
2022-09-21T22:44:16.382Z,10.00
2022-09-21T22:46:43.499Z,10.00
2022-09-21T22:49:10.797Z,10.10
2022-09-21T22:51:38.292Z,10.10
2022-09-21T22:54:05.850Z,10.10
2022-09-21T22:56:34.398Z,10.10
2022-09-21T22:59:03.457Z,10.00
2022-09-21T23:01:37.021Z,10.10
2022-09-21T23:04:07.677Z,10.10
2022-09-21T23:06:37.449Z,10.10
2022-09-21T23:09:07.793Z,10.10
2022-09-21T23:11:40.280Z,10.10
2022-09-21T23:14:07.349Z,10.20
2022-09-21T23:16:34.790Z,10.20
2022-09-21T23:19:02.209Z,10.20
2022-09-21T23:21:31.288Z,10.20
2022-09-21T23:24:01.013Z,10.20
2022-09-21T23:26:30.709Z,10.20
2022-09-21T23:29:00.234Z,10.30
2022-09-21T23:31:28.766Z,10.30
2022-09-21T23:33:58.933Z,10.30
2022-09-21T23:36:28.776Z,10.30
2022-09-21T23:38:56.762Z,10.30
2022-09-21T23:41:29.863Z,10.30
2022-09-21T23:43:58.469Z,10.40
2022-09-21T23:46:29.235Z,10.40
2022-09-21T23:48:57.579Z,10.40
2022-09-21T23:51:25.601Z,10.40
2022-09-21T23:53:53.140Z,10.40
2022-09-21T23:56:23.398Z,10.50
2022-09-21T23:58:51.204Z,10.50
